Time;durP1;ratioP1;P1;durP2;ratioP2;P2;SDS_P1;SDS_P2;PMS_P1;PMS_P2;Temp;Humidity;BMP_temperature;BMP_pressure;BME280_temperature;BME280_humidity;BME280_pressure;Samples;Min_cycle;Max_cycle;Signal;HPM_P1;HPM_P2
2021/12/27 00:01:12;;;;;;;;;;;0.00;99.90;;;;;;5070098;28;19970;-84
2021/12/27 00:03:38;;;;;;;;;;;-0.40;99.90;;;;;;5069953;28;19935;-84
2021/12/27 00:06:09;;;;;;;;;;;-0.20;99.90;;;;;;5069351;28;19929;-85
2021/12/27 00:08:35;;;;;;;;;;;-0.20;99.90;;;;;;5071344;28;19925;-84
2021/12/27 00:11:01;;;;;;;;;;;1.50;99.90;;;;;;5068559;28;19924;-84
2021/12/27 00:13:27;;;;;;;;;;;1.40;99.90;;;;;;5069385;28;19935;-84
2021/12/27 00:15:52;;;;;;;;;;;3.20;99.90;;;;;;5067897;28;19928;-84
2021/12/27 00:18:18;;;;;;;;;;;-0.50;99.90;;;;;;5070118;28;19935;-84
2021/12/27 00:20:44;;;;;;;;;;;-0.40;99.90;;;;;;5068878;28;19932;-84
2021/12/27 00:23:09;;;;;;;;;;;2.70;99.90;;;;;;5068148;28;19931;-84
2021/12/27 00:25:35;;;;;;;;;;;-0.80;99.90;;;;;;5069238;28;20014;-85
2021/12/27 00:28:00;;;;;;;;;;;0.50;99.90;;;;;;5052477;28;19928;-85
2021/12/27 00:30:26;;;;;;;;;;;-0.50;99.90;;;;;;5052863;28;19924;-85
2021/12/27 00:32:51;;;;;;;;;;;-0.50;99.90;;;;;;5065711;28;19924;-85
2021/12/27 00:35:18;;;;;;;;;;;2.60;99.90;;;;;;5069621;28;19936;-86
2021/12/27 00:37:44;;;;;;;;;;;-0.10;99.90;;;;;;5070336;28;19929;-85
2021/12/27 00:40:11;;;;;;;;;;;2.60;99.90;;;;;;5070564;28;20285;-85
2021/12/27 00:42:37;;;;;;;;;;;-0.40;99.90;;;;;;5072671;28;19990;-86
2021/12/27 00:45:03;;;;;;;;;;;-0.20;99.90;;;;;;5071845;28;19982;-87
2021/12/27 00:47:28;;;;;;;;;;;-0.40;99.90;;;;;;5066464;28;19967;-87
2021/12/27 00:49:54;;;;;;;;;;;-0.40;99.90;;;;;;5069880;28;19936;-86
2021/12/27 00:52:19;;;;;;;;;;;-0.30;99.90;;;;;;5072436;28;19975;-86
2021/12/27 00:54:45;;;;;;;;;;;-0.40;99.90;;;;;;5073189;28;19987;-86
2021/12/27 00:57:11;;;;;;;;;;;-0.30;99.90;;;;;;5072640;28;19925;-86
2021/12/27 00:59:36;;;;;;;;;;;-0.40;99.90;;;;;;5073980;28;19932;-86
2021/12/27 01:02:02;;;;;;;;;;;-0.40;99.90;;;;;;5055422;28;20004;-86
2021/12/27 01:04:28;;;;;;;;;;;-0.30;99.90;;;;;;5073012;28;19932;-86
2021/12/27 01:06:53;;;;;;;;;;;-0.30;99.90;;;;;;5071479;28;20076;-87
2021/12/27 01:12:24;;;;;;;;;;;-0.30;99.90;;;;;;5043446;28;19933;-86
2021/12/27 01:17:37;;;;;;;;;;;-0.20;99.90;;;;;;5072554;28;20399;-87
2021/12/27 01:20:05;;;;;;;;;;;-0.20;99.90;;;;;;5056079;28;19931;-86
2021/12/27 01:22:30;;;;;;;;;;;-0.30;99.90;;;;;;5055116;28;20000;-87
2021/12/27 01:24:56;;;;;;;;;;;1.60;99.90;;;;;;5071456;28;19929;-87
2021/12/27 01:27:21;;;;;;;;;;;-0.30;99.90;;;;;;5068699;28;19974;-87
2021/12/27 01:29:47;;;;;;;;;;;-0.30;99.90;;;;;;5063636;28;19932;-87
2021/12/27 01:32:13;;;;;;;;;;;-0.30;99.90;;;;;;5037827;28;20591;-85
2021/12/27 01:34:38;;;;;;;;;;;-0.90;99.90;;;;;;5056125;28;19928;-86
2021/12/27 01:37:06;;;;;;;;;;;1.90;99.90;;;;;;5041219;28;19924;-86
2021/12/27 01:39:31;;;;;;;;;;;-0.20;99.90;;;;;;5072799;28;20306;-86
2021/12/27 01:41:57;;;;;;;;;;;-0.30;99.90;;;;;;5072407;28;19932;-85
2021/12/27 01:44:22;;;;;;;;;;;-0.20;99.90;;;;;;5072421;28;19931;-86
2021/12/27 01:46:51;;;;;;;;;;;-0.20;99.90;;;;;;5037639;28;19978;-86
2021/12/27 01:49:17;;;;;;;;;;;1.10;99.90;;;;;;5055085;28;20190;-87
2021/12/27 01:51:44;;;;;;;;;;;-0.30;99.90;;;;;;5068926;28;19968;-88
2021/12/27 01:54:09;;;;;;;;;;;2.60;99.90;;;;;;5054916;28;19955;-87
2021/12/27 01:56:35;;;;;;;;;;;-0.40;99.90;;;;;;5054788;28;19928;-87
2021/12/27 01:59:00;;;;;;;;;;;-0.40;99.90;;;;;;5052870;28;20011;-87
2021/12/27 02:01:26;;;;;;;;;;;2.40;99.90;;;;;;5052883;28;19982;-85
2021/12/27 02:03:53;;;;;;;;;;;-0.20;99.90;;;;;;5053708;28;21519;-85
2021/12/27 02:06:19;;;;;;;;;;;-0.10;99.90;;;;;;5053028;28;19932;-85
2021/12/27 02:08:45;;;;;;;;;;;-0.20;99.90;;;;;;5055267;28;19964;-85
2021/12/27 02:11:11;;;;;;;;;;;1.20;99.90;;;;;;5070504;28;19979;-85
2021/12/27 02:13:44;;;;;;;;;;;-0.20;99.90;;;;;;5054261;28;19933;-86
2021/12/27 02:16:11;;;;;;;;;;;-0.30;99.90;;;;;;5052480;28;20277;-86
2021/12/27 02:18:37;;;;;;;;;;;-0.10;99.90;;;;;;5054422;28;19966;-86
2021/12/27 02:21:03;;;;;;;;;;;-0.20;99.90;;;;;;5053440;28;19928;-87
2021/12/27 02:23:29;;;;;;;;;;;-0.20;99.90;;;;;;5054459;28;20344;-87
2021/12/27 02:25:55;;;;;;;;;;;-0.30;99.90;;;;;;5054133;28;19971;-89
2021/12/27 02:28:21;;;;;;;;;;;-0.20;99.90;;;;;;5070356;28;20349;-86
2021/12/27 02:30:47;;;;;;;;;;;1.30;99.90;;;;;;5053916;28;19925;-87
2021/12/27 02:33:13;;;;;;;;;;;0.20;99.90;;;;;;5053254;28;19924;-87
2021/12/27 02:35:41;;;;;;;;;;;-0.30;99.90;;;;;;5070492;28;19924;-89
2021/12/27 02:38:09;;;;;;;;;;;-2.90;99.90;;;;;;5070171;28;19924;-87
2021/12/27 02:40:35;;;;;;;;;;;-0.20;99.90;;;;;;5070836;28;19932;-87
2021/12/27 02:43:20;;;;;;;;;;;3.00;99.90;;;;;;5070424;28;19985;-88
2021/12/27 02:45:48;;;;;;;;;;;0.00;99.90;;;;;;5060735;28;20015;-88
2021/12/27 02:48:14;;;;;;;;;;;-0.40;99.90;;;;;;5052641;28;19935;-87
2021/12/27 02:50:41;;;;;;;;;;;-0.20;99.90;;;;;;5053027;28;19924;-87
2021/12/27 02:53:07;;;;;;;;;;;-0.10;99.90;;;;;;5070825;28;19979;-86
2021/12/27 02:55:33;;;;;;;;;;;0.00;99.90;;;;;;5071707;28;19969;-88
2021/12/27 02:57:59;;;;;;;;;;;-0.20;99.90;;;;;;5069881;28;20386;-86
2021/12/27 03:00:33;;;;;;;;;;;-0.10;99.90;;;;;;5054501;28;20436;-87
2021/12/27 03:02:58;;;;;;;;;;;-0.10;99.90;;;;;;5070371;28;19947;-87
2021/12/27 03:05:25;;;;;;;;;;;1.10;99.90;;;;;;5064138;28;20295;-88
2021/12/27 03:07:51;;;;;;;;;;;-0.10;99.90;;;;;;5067899;28;19936;-86
2021/12/27 03:10:18;;;;;;;;;;;-0.10;99.90;;;;;;5070866;28;20055;-87
2021/12/27 03:12:45;;;;;;;;;;;0.00;99.90;;;;;;5053506;28;19925;-86
2021/12/27 03:15:12;;;;;;;;;;;-0.10;99.90;;;;;;5071420;28;20213;-86
2021/12/27 03:17:37;;;;;;;;;;;-0.10;99.90;;;;;;5053367;28;19929;-85
2021/12/27 03:20:04;;;;;;;;;;;0.00;99.90;;;;;;5054024;28;19932;-85
2021/12/27 03:22:29;;;;;;;;;;;1.40;99.90;;;;;;5052529;28;20431;-85
2021/12/27 03:24:55;;;;;;;;;;;0.50;99.90;;;;;;5071833;28;20047;-86
2021/12/27 03:27:21;;;;;;;;;;;-0.10;99.90;;;;;;5054045;28;20015;-84
2021/12/27 03:29:46;;;;;;;;;;;1.50;99.90;;;;;;5069435;28;20009;-86
2021/12/27 03:32:13;;;;;;;;;;;0.00;99.90;;;;;;5051972;28;19924;-87
2021/12/27 03:34:52;;;;;;;;;;;0.20;99.90;;;;;;5069127;28;21523;-85
2021/12/27 03:37:18;;;;;;;;;;;0.00;99.90;;;;;;5066356;28;19924;-87
2021/12/27 03:39:44;;;;;;;;;;;0.80;99.90;;;;;;5068502;28;20027;-84
2021/12/27 03:42:09;;;;;;;;;;;-0.20;99.90;;;;;;5050254;28;19928;-85
2021/12/27 03:44:35;;;;;;;;;;;0.10;99.90;;;;;;5050228;28;19932;-84
2021/12/27 03:47:00;;;;;;;;;;;-0.10;99.90;;;;;;5052706;28;20368;-84
2021/12/27 03:49:26;;;;;;;;;;;0.00;99.90;;;;;;5052879;28;20151;-85
2021/12/27 03:51:52;;;;;;;;;;;0.10;99.90;;;;;;5070255;28;20293;-84
2021/12/27 03:54:17;;;;;;;;;;;0.10;99.90;;;;;;5068881;28;19932;-84
2021/12/27 03:56:43;;;;;;;;;;;0.10;99.90;;;;;;5070177;28;19939;-85
2021/12/27 03:59:21;;;;;;;;;;;-0.10;99.90;;;;;;5068740;28;19924;-84
2021/12/27 04:01:47;;;;;;;;;;;0.00;99.90;;;;;;5082353;28;19963;-85
2021/12/27 04:04:13;;;;;;;;;;;0.30;99.90;;;;;;5035966;28;19967;-84
2021/12/27 04:06:38;;;;;;;;;;;0.10;99.90;;;;;;5068968;28;19931;-84
2021/12/27 04:09:04;;;;;;;;;;;1.20;99.90;;;;;;5069261;28;20415;-84
2021/12/27 04:11:31;;;;;;;;;;;0.10;99.90;;;;;;5070064;28;19924;-84
2021/12/27 04:13:57;;;;;;;;;;;1.30;99.90;;;;;;5069503;28;20301;-84
2021/12/27 04:16:23;;;;;;;;;;;0.00;99.90;;;;;;5068848;28;20207;-84
2021/12/27 04:18:49;;;;;;;;;;;0.10;99.90;;;;;;5070043;28;19932;-83
2021/12/27 04:21:14;;;;;;;;;;;-0.20;99.90;;;;;;5069495;28;20098;-84
2021/12/27 04:23:41;;;;;;;;;;;0.10;99.90;;;;;;5069304;28;19931;-84
2021/12/27 04:26:07;;;;;;;;;;;0.00;99.90;;;;;;5069418;28;19925;-84
2021/12/27 04:28:32;;;;;;;;;;;2.80;99.90;;;;;;5052495;28;19924;-83
2021/12/27 04:30:58;;;;;;;;;;;-0.20;99.90;;;;;;5070346;28;19932;-84
2021/12/27 04:33:24;;;;;;;;;;;-0.10;99.90;;;;;;5069665;28;19924;-84
2021/12/27 04:35:49;;;;;;;;;;;0.20;99.90;;;;;;5069268;28;19940;-84
2021/12/27 04:38:15;;;;;;;;;;;-0.10;99.90;;;;;;5070295;28;19931;-84
2021/12/27 04:40:42;;;;;;;;;;;2.10;99.90;;;;;;5070645;28;19978;-84
2021/12/27 04:43:09;;;;;;;;;;;2.30;99.90;;;;;;5070385;28;19928;-83
2021/12/27 04:45:35;;;;;;;;;;;-0.10;99.90;;;;;;5068017;28;19943;-84
2021/12/27 04:48:01;;;;;;;;;;;2.00;99.90;;;;;;5052766;28;19940;-83
2021/12/27 04:50:27;;;;;;;;;;;2.00;99.90;;;;;;5068974;28;19932;-83
2021/12/27 04:52:53;;;;;;;;;;;2.40;99.90;;;;;;5068076;28;19967;-84
2021/12/27 04:55:23;;;;;;;;;;;-0.10;99.90;;;;;;5069465;28;19925;-84
2021/12/27 04:57:48;;;;;;;;;;;0.10;99.90;;;;;;5069308;28;20377;-83
2021/12/27 05:00:14;;;;;;;;;;;0.00;99.90;;;;;;5061276;28;19924;-86
2021/12/27 05:02:40;;;;;;;;;;;0.20;99.90;;;;;;5052148;28;19924;-83
2021/12/27 05:05:05;;;;;;;;;;;-0.10;99.90;;;;;;5066040;28;20016;-84
2021/12/27 05:07:31;;;;;;;;;;;0.30;99.90;;;;;;5068901;28;19971;-84
2021/12/27 05:09:57;;;;;;;;;;;1.90;99.90;;;;;;5070148;28;20008;-83
2021/12/27 05:12:22;;;;;;;;;;;2.60;99.90;;;;;;5070446;28;19925;-83
2021/12/27 05:14:48;;;;;;;;;;;0.20;99.90;;;;;;5069966;28;20010;-83
2021/12/27 05:17:13;;;;;;;;;;;-0.20;99.90;;;;;;5069122;28;20062;-83
2021/12/27 05:19:39;;;;;;;;;;;-0.10;99.90;;;;;;5070537;28;19928;-83
2021/12/27 05:22:04;;;;;;;;;;;-0.20;99.90;;;;;;5089088;28;19925;-83
2021/12/27 05:24:30;;;;;;;;;;;0.00;99.90;;;;;;5073116;28;19958;-83
2021/12/27 05:26:56;;;;;;;;;;;-0.10;99.90;;;;;;5072471;28;19929;-83
2021/12/27 05:29:22;;;;;;;;;;;2.20;99.90;;;;;;5072993;28;20065;-84
2021/12/27 05:31:47;;;;;;;;;;;-0.10;99.90;;;;;;5072523;28;19928;-84
2021/12/27 05:34:14;;;;;;;;;;;0.90;99.90;;;;;;5074014;28;19932;-83
2021/12/27 05:36:42;;;;;;;;;;;0.10;99.90;;;;;;5065531;28;20335;-84
2021/12/27 05:39:08;;;;;;;;;;;2.60;99.90;;;;;;5073044;28;19929;-84
2021/12/27 05:41:34;;;;;;;;;;;-0.20;99.90;;;;;;5072760;28;19925;-83
2021/12/27 05:43:59;;;;;;;;;;;-0.10;99.90;;;;;;5073784;28;20255;-82
2021/12/27 05:46:25;;;;;;;;;;;-0.20;99.90;;;;;;5072122;28;20359;-83
2021/12/27 05:48:50;;;;;;;;;;;0.10;99.90;;;;;;5071947;28;19967;-83
2021/12/27 05:51:16;;;;;;;;;;;2.90;99.90;;;;;;5071529;28;19933;-83
2021/12/27 05:53:42;;;;;;;;;;;1.50;1.00;;;;;;5071282;28;20031;-84
2021/12/27 05:56:08;;;;;;;;;;;0.10;1.00;;;;;;5071437;28;20004;-83
2021/12/27 05:58:33;;;;;;;;;;;-0.10;1.00;;;;;;5070504;28;20440;-83
2021/12/27 06:00:59;;;;;;;;;;;0.00;1.00;;;;;;5090399;28;19948;-83
2021/12/27 06:03:25;;;;;;;;;;;0.10;1.00;;;;;;5072474;28;19981;-83
2021/12/27 06:05:50;;;;;;;;;;;-0.10;1.00;;;;;;5070623;28;20015;-83
2021/12/27 06:08:16;;;;;;;;;;;-0.20;1.00;;;;;;5069169;28;20274;-83
2021/12/27 06:10:41;;;;;;;;;;;1.20;1.00;;;;;;5070769;28;19994;-83
2021/12/27 06:13:07;;;;;;;;;;;2.30;1.00;;;;;;5072091;28;19929;-83
2021/12/27 06:15:33;;;;;;;;;;;2.60;1.00;;;;;;5063993;28;20029;-83
2021/12/27 06:17:58;;;;;;;;;;;-0.10;1.00;;;;;;5072405;28;20308;-83
2021/12/27 06:20:24;;;;;;;;;;;0.30;1.00;;;;;;5072591;28;19924;-84
2021/12/27 06:22:51;;;;;;;;;;;2.80;1.00;;;;;;5072412;28;19920;-82
2021/12/27 06:25:17;;;;;;;;;;;2.10;1.00;;;;;;5055435;28;19975;-82
2021/12/27 06:27:43;;;;;;;;;;;0.00;1.00;;;;;;5072440;28;19968;-83
2021/12/27 06:30:10;;;;;;;;;;;1.10;1.00;;;;;;5072900;28;19982;-83
2021/12/27 06:32:36;;;;;;;;;;;0.00;1.00;;;;;;5070146;28;20004;-81
2021/12/27 06:35:02;;;;;;;;;;;0.20;1.00;;;;;;5073794;28;20007;-81
2021/12/27 06:37:28;;;;;;;;;;;0.40;1.00;;;;;;5069989;28;19928;-81
2021/12/27 06:39:53;;;;;;;;;;;2.70;1.00;;;;;;5071958;28;19986;-81
2021/12/27 06:42:19;;;;;;;;;;;1.80;1.00;;;;;;5071855;28;19947;-81
2021/12/27 06:44:44;;;;;;;;;;;0.00;1.40;;;;;;5071350;28;20115;-81
2021/12/27 06:47:10;;;;;;;;;;;0.00;11.50;;;;;;5069178;28;20070;-81
2021/12/27 06:49:37;;;;;;;;;;;2.40;15.50;;;;;;5071478;28;20396;-81
2021/12/27 06:52:03;;;;;;;;;;;0.10;23.80;;;;;;5074792;28;19924;-81
2021/12/27 06:54:29;;;;;;;;;;;0.20;47.70;;;;;;5065341;28;19970;-81
2021/12/27 06:56:57;;;;;;;;;;;0.20;62.50;;;;;;5076468;28;19924;-81
2021/12/27 06:59:23;;;;;;;;;;;1.90;80.50;;;;;;5068690;28;19970;-81
2021/12/27 07:01:48;;;;;;;;;;;2.60;99.90;;;;;;5069057;28;19924;-81
2021/12/27 07:04:14;;;;;;;;;;;0.10;99.90;;;;;;5070319;28;20003;-78
2021/12/27 07:06:39;;;;;;;;;;;2.00;99.90;;;;;;5069135;28;19925;-78
2021/12/27 07:09:06;;;;;;;;;;;1.80;99.90;;;;;;5071063;28;19974;-78
2021/12/27 07:11:31;;;;;;;;;;;2.90;99.90;;;;;;5070127;28;19932;-79
2021/12/27 07:13:57;;;;;;;;;;;0.00;99.90;;;;;;5071804;28;19928;-79
2021/12/27 07:16:25;;;;;;;;;;;1.60;99.90;;;;;;5069600;28;19928;-79
2021/12/27 07:18:51;;;;;;;;;;;0.10;99.90;;;;;;5069356;28;20353;-79
2021/12/27 07:21:17;;;;;;;;;;;0.90;99.90;;;;;;5084465;28;20018;-79
2021/12/27 07:23:44;;;;;;;;;;;2.00;99.90;;;;;;5069344;28;19962;-79
2021/12/27 07:26:09;;;;;;;;;;;0.10;99.90;;;;;;5083997;28;19921;-78
2021/12/27 07:28:35;;;;;;;;;;;0.10;99.90;;;;;;5070770;28;20296;-78
2021/12/27 07:31:00;;;;;;;;;;;2.70;99.90;;;;;;5070434;28;19924;-79
2021/12/27 07:33:26;;;;;;;;;;;2.60;99.90;;;;;;5071682;28;19974;-79
2021/12/27 07:35:51;;;;;;;;;;;0.40;99.90;;;;;;5068433;28;19928;-79
2021/12/27 07:38:17;;;;;;;;;;;0.70;99.90;;;;;;5070234;28;19928;-79
2021/12/27 07:40:43;;;;;;;;;;;3.00;99.90;;;;;;5070094;28;19925;-78
2021/12/27 07:43:08;;;;;;;;;;;1.10;99.90;;;;;;5069147;28;20027;-78
2021/12/27 07:45:34;;;;;;;;;;;2.70;99.90;;;;;;5067349;28;19925;-79
2021/12/27 07:48:00;;;;;;;;;;;0.40;99.90;;;;;;5069688;28;19924;-79
2021/12/27 07:50:25;;;;;;;;;;;3.00;99.90;;;;;;5067526;28;19924;-79
2021/12/27 07:52:51;;;;;;;;;;;0.20;99.90;;;;;;5069571;28;19929;-80
2021/12/27 07:55:16;;;;;;;;;;;2.90;99.90;;;;;;5070275;28;19931;-79
2021/12/27 07:57:43;;;;;;;;;;;1.50;99.90;;;;;;5073972;28;19924;-79
2021/12/27 08:00:09;;;;;;;;;;;0.20;1.00;;;;;;5074262;28;19924;-79
2021/12/27 08:02:35;;;;;;;;;;;0.40;99.90;;;;;;5069225;28;20292;-79
2021/12/27 08:05:00;;;;;;;;;;;2.80;1.00;;;;;;5069738;28;19924;-78
2021/12/27 08:07:26;;;;;;;;;;;0.30;1.00;;;;;;5063084;28;19944;-79
2021/12/27 08:09:51;;;;;;;;;;;2.30;1.00;;;;;;5070441;28;19928;-79
2021/12/27 08:12:17;;;;;;;;;;;0.50;1.00;;;;;;5070762;28;20015;-78
2021/12/27 08:14:43;;;;;;;;;;;3.10;1.00;;;;;;5065074;28;19925;-78
2021/12/27 08:17:08;;;;;;;;;;;1.70;1.00;;;;;;5062186;28;20058;-79
2021/12/27 08:19:34;;;;;;;;;;;0.30;1.00;;;;;;5070404;28;20042;-81
2021/12/27 08:22:00;;;;;;;;;;;2.50;1.00;;;;;;5069882;28;19928;-79
2021/12/27 08:24:26;;;;;;;;;;;2.80;1.00;;;;;;5071470;28;19971;-79
2021/12/27 08:26:52;;;;;;;;;;;3.00;1.00;;;;;;5069960;28;19990;-80
2021/12/27 08:29:17;;;;;;;;;;;0.50;1.00;;;;;;5070884;28;19932;-80
2021/12/27 08:31:43;;;;;;;;;;;2.90;1.00;;;;;;5070646;28;20023;-79
2021/12/27 08:34:08;;;;;;;;;;;2.60;1.00;;;;;;5071108;28;19921;-79
2021/12/27 08:36:34;;;;;;;;;;;0.60;1.00;;;;;;5070211;28;19944;-79
2021/12/27 08:38:59;;;;;;;;;;;1.10;1.00;;;;;;5059978;28;20003;-79
2021/12/27 08:41:27;;;;;;;;;;;0.40;1.00;;;;;;5071100;28;19920;-78
2021/12/27 08:43:54;;;;;;;;;;;0.50;1.00;;;;;;5070332;28;19943;-79
2021/12/27 08:46:20;;;;;;;;;;;3.00;20.20;;;;;;5070814;28;19929;-78
2021/12/27 08:48:45;;;;;;;;;;;2.50;16.70;;;;;;5069961;28;19931;-80
2021/12/27 08:51:11;;;;;;;;;;;2.70;9.00;;;;;;5068670;28;19929;-80
2021/12/27 08:53:37;;;;;;;;;;;0.50;54.10;;;;;;5069252;28;20377;-81
2021/12/27 08:56:03;;;;;;;;;;;1.50;79.10;;;;;;5072606;28;19973;-79
2021/12/27 08:58:28;;;;;;;;;;;0.70;86.90;;;;;;5074735;28;19924;-79
2021/12/27 09:00:54;;;;;;;;;;;0.50;85.70;;;;;;5073540;28;20276;-79
2021/12/27 09:03:20;;;;;;;;;;;0.50;98.50;;;;;;5074915;28;19968;-78
2021/12/27 09:05:45;;;;;;;;;;;1.30;99.90;;;;;;5072405;28;19964;-78
2021/12/27 09:08:11;;;;;;;;;;;3.30;99.90;;;;;;5072596;28;19924;-78
2021/12/27 09:10:36;;;;;;;;;;;0.60;99.90;;;;;;5073889;28;19932;-79
2021/12/27 09:13:03;;;;;;;;;;;0.60;99.90;;;;;;5074618;28;19924;-78
2021/12/27 09:15:29;;;;;;;;;;;0.70;99.90;;;;;;5073757;28;19924;-79
2021/12/27 09:17:54;;;;;;;;;;;0.80;99.90;;;;;;5073558;28;19924;-79
2021/12/27 09:20:21;;;;;;;;;;;0.60;99.90;;;;;;5074387;28;19932;-79
2021/12/27 09:22:47;;;;;;;;;;;2.60;99.90;;;;;;5072985;28;19920;-78
2021/12/27 09:25:12;;;;;;;;;;;0.80;99.90;;;;;;5073777;28;19931;-77
2021/12/27 09:27:38;;;;;;;;;;;3.00;99.90;;;;;;5073794;28;19931;-78
2021/12/27 09:30:04;;;;;;;;;;;2.80;99.90;;;;;;5055801;28;20269;-78
2021/12/27 09:32:30;;;;;;;;;;;0.90;99.90;;;;;;5073952;28;19987;-78
2021/12/27 09:34:56;;;;;;;;;;;0.80;99.90;;;;;;5073141;28;19971;-78
2021/12/27 09:37:22;;;;;;;;;;;1.00;99.90;;;;;;5067134;28;19928;-78
2021/12/27 09:39:55;;;;;;;;;;;2.00;99.90;;;;;;5073433;28;20326;-78
2021/12/27 09:42:21;;;;;;;;;;;3.10;99.90;;;;;;5071004;28;19925;-78
2021/12/27 09:44:47;;;;;;;;;;;2.70;99.90;;;;;;5072381;28;19964;-79
2021/12/27 09:47:13;;;;;;;;;;;0.90;99.90;;;;;;5072844;28;20268;-79
2021/12/27 09:49:39;;;;;;;;;;;2.60;99.90;;;;;;5072659;28;20000;-80
2021/12/27 09:52:05;;;;;;;;;;;2.50;99.90;;;;;;5071699;28;20376;-79
2021/12/27 09:54:31;;;;;;;;;;;1.20;99.90;;;;;;5066029;28;19924;-79
2021/12/27 09:56:57;;;;;;;;;;;1.10;99.90;;;;;;5075661;28;20033;-79
2021/12/27 09:59:23;;;;;;;;;;;3.20;99.90;;;;;;5073579;28;19928;-79
2021/12/27 10:01:50;;;;;;;;;;;3.40;99.90;;;;;;5070810;28;19929;-79
2021/12/27 10:04:15;;;;;;;;;;;1.20;99.90;;;;;;5073192;28;20085;-79
2021/12/27 10:06:41;;;;;;;;;;;3.00;99.90;;;;;;5067326;28;19929;-79
2021/12/27 10:09:06;;;;;;;;;;;3.00;99.90;;;;;;5070975;28;19924;-80
2021/12/27 10:11:33;;;;;;;;;;;3.20;99.90;;;;;;5072691;28;20022;-81
2021/12/27 10:14:09;;;;;;;;;;;3.60;99.90;;;;;;5072538;28;19924;-81
2021/12/27 10:16:43;;;;;;;;;;;1.20;99.90;;;;;;5072340;28;19931;-82
2021/12/27 10:19:10;;;;;;;;;;;1.30;99.90;;;;;;5072045;28;19951;-82
2021/12/27 10:21:41;;;;;;;;;;;1.40;99.90;;;;;;5072285;28;19924;-81
2021/12/27 10:24:06;;;;;;;;;;;1.10;99.90;;;;;;5072013;28;19935;-82
2021/12/27 10:26:32;;;;;;;;;;;1.10;99.30;;;;;;5055932;28;20377;-81
2021/12/27 10:29:08;;;;;;;;;;;1.30;56.30;;;;;;5058284;28;19931;-82
2021/12/27 10:31:52;;;;;;;;;;;1.50;63.40;;;;;;5072053;28;20008;-83
2021/12/27 10:34:19;;;;;;;;;;;1.50;92.60;;;;;;5054323;28;19932;-83
2021/12/27 10:37:03;;;;;;;;;;;3.40;46.20;;;;;;5072256;28;20455;-82
2021/12/27 10:39:42;;;;;;;;;;;1.50;12.90;;;;;;5071747;28;20011;-83
2021/12/27 10:42:09;;;;;;;;;;;2.10;99.90;;;;;;5070582;28;19928;-81
2021/12/27 10:44:35;;;;;;;;;;;1.70;99.90;;;;;;5072153;28;19975;-83
2021/12/27 10:47:01;;;;;;;;;;;3.80;99.90;;;;;;5071740;28;19932;-83
2021/12/27 10:49:46;;;;;;;;;;;1.80;99.90;;;;;;5071624;28;19924;-83
2021/12/27 10:52:12;;;;;;;;;;;1.70;99.90;;;;;;5070731;28;19932;-83
2021/12/27 10:54:38;;;;;;;;;;;1.60;99.90;;;;;;5080412;28;19928;-82
2021/12/27 10:57:04;;;;;;;;;;;1.50;99.90;;;;;;5072061;28;19925;-78
2021/12/27 10:59:30;;;;;;;;;;;1.80;99.90;;;;;;5070532;28;19995;-84
2021/12/27 11:01:55;;;;;;;;;;;3.50;99.90;;;;;;5070216;28;19928;-82
2021/12/27 11:04:21;;;;;;;;;;;3.20;99.90;;;;;;5070526;28;19924;-83
2021/12/27 11:06:48;;;;;;;;;;;1.70;99.90;;;;;;5071334;28;20073;-82
2021/12/27 11:09:14;;;;;;;;;;;1.70;99.90;;;;;;5070116;28;20033;-82
2021/12/27 11:11:41;;;;;;;;;;;4.30;99.90;;;;;;5070892;28;19925;-81
2021/12/27 11:14:07;;;;;;;;;;;3.30;99.90;;;;;;5071024;28;19976;-82
2021/12/27 11:16:33;;;;;;;;;;;2.80;99.90;;;;;;5070859;28;19925;-83
2021/12/27 11:18:59;;;;;;;;;;;1.80;99.90;;;;;;5067064;28;19934;-81
2021/12/27 11:21:30;;;;;;;;;;;1.70;99.90;;;;;;5069538;28;19925;-80
2021/12/27 11:23:56;;;;;;;;;;;1.80;1.00;;;;;;5070275;28;20023;-81
2021/12/27 11:26:23;;;;;;;;;;;4.50;1.00;;;;;;5071621;28;20387;-80
2021/12/27 11:28:49;;;;;;;;;;;1.90;99.90;;;;;;5071311;28;19978;-78
2021/12/27 11:31:16;;;;;;;;;;;2.20;1.00;;;;;;5070573;28;19928;-77
2021/12/27 11:33:51;;;;;;;;;;;4.50;1.00;;;;;;5071325;28;19931;-77
2021/12/27 11:36:17;;;;;;;;;;;2.30;1.00;;;;;;5061764;28;19928;-76
2021/12/27 11:38:43;;;;;;;;;;;2.20;1.00;;;;;;5053223;28;19933;-76
2021/12/27 11:41:24;;;;;;;;;;;4.60;1.00;;;;;;5069828;28;20376;-76
2021/12/27 11:43:50;;;;;;;;;;;2.20;1.00;;;;;;5068491;28;19955;-83
2021/12/27 11:46:15;;;;;;;;;;;4.20;1.00;;;;;;5069764;28;20334;-85
2021/12/27 11:48:45;;;;;;;;;;;2.40;1.00;;;;;;5067952;28;20286;-86
2021/12/27 11:51:11;;;;;;;;;;;2.30;1.00;;;;;;5050637;28;19924;-86
2021/12/27 11:53:57;;;;;;;;;;;4.70;1.00;;;;;;5068720;28;19974;-85
2021/12/27 11:56:55;;;;;;;;;;;4.20;1.00;;;;;;5069341;28;19924;-83
2021/12/27 11:59:27;;;;;;;;;;;2.40;1.00;;;;;;5042129;28;19948;-83
2021/12/27 12:01:56;;;;;;;;;;;2.30;1.00;;;;;;5069087;28;20308;-82
2021/12/27 12:04:39;;;;;;;;;;;2.30;1.00;;;;;;5070098;28;19928;-83
2021/12/27 12:07:07;;;;;;;;;;;2.20;1.00;;;;;;5069059;28;19942;-85
2021/12/27 12:09:42;;;;;;;;;;;2.50;1.00;;;;;;5068902;28;19925;-84
2021/12/27 12:12:11;;;;;;;;;;;4.60;1.00;;;;;;5067799;28;19988;-84
2021/12/27 12:14:36;;;;;;;;;;;3.30;1.00;;;;;;5070895;28;20023;-84
2021/12/27 12:17:03;;;;;;;;;;;4.50;2.20;;;;;;5069372;28;20122;-85
2021/12/27 12:19:35;;;;;;;;;;;2.50;14.90;;;;;;5070505;28;19940;-85
2021/12/27 12:22:00;;;;;;;;;;;2.50;24.80;;;;;;5067848;28;20284;-81
2021/12/27 12:24:26;;;;;;;;;;;2.40;24.50;;;;;;5069662;28;19986;-82
2021/12/27 12:26:51;;;;;;;;;;;3.60;60.10;;;;;;5057261;28;19990;-82
2021/12/27 12:29:17;;;;;;;;;;;5.10;62.40;;;;;;5069795;28;20015;-83
2021/12/27 12:31:43;;;;;;;;;;;2.90;88.90;;;;;;5075682;28;19925;-82
2021/12/27 12:34:13;;;;;;;;;;;2.50;1.00;;;;;;5071984;28;19976;-81
2021/12/27 12:36:45;;;;;;;;;;;2.70;99.90;;;;;;5072243;28;19940;-83
2021/12/27 12:39:11;;;;;;;;;;;2.50;99.90;;;;;;5057655;28;20257;-79
2021/12/27 12:41:36;;;;;;;;;;;5.30;99.90;;;;;;5073679;28;19950;-85
2021/12/27 12:44:02;;;;;;;;;;;4.80;99.90;;;;;;5072386;28;19928;-82
2021/12/27 12:46:41;;;;;;;;;;;2.80;99.90;;;;;;5073025;28;19925;-84
2021/12/27 12:49:11;;;;;;;;;;;2.70;99.90;;;;;;5072199;28;20401;-86
2021/12/27 12:51:40;;;;;;;;;;;2.80;99.90;;;;;;5073739;28;20356;-85
2021/12/27 12:54:07;;;;;;;;;;;5.40;99.90;;;;;;5073252;28;19950;-85
2021/12/27 12:56:34;;;;;;;;;;;4.70;99.90;;;;;;5072689;28;19935;-84
2021/12/27 12:59:00;;;;;;;;;;;5.50;99.90;;;;;;5069511;28;20008;-83
2021/12/27 13:01:25;;;;;;;;;;;4.50;99.90;;;;;;5068431;28;19984;-84
2021/12/27 13:03:55;;;;;;;;;;;5.70;99.90;;;;;;5074256;28;20295;-84
2021/12/27 13:06:21;;;;;;;;;;;2.90;99.90;;;;;;5071741;28;20032;-84
2021/12/27 13:08:53;;;;;;;;;;;4.20;99.90;;;;;;5071990;28;20287;-85
2021/12/27 13:11:19;;;;;;;;;;;3.00;99.90;;;;;;5073246;28;19925;-85
2021/12/27 13:13:45;;;;;;;;;;;3.10;99.90;;;;;;5072510;28;19947;-78
2021/12/27 13:16:10;;;;;;;;;;;3.00;99.90;;;;;;5052038;28;20010;-81
2021/12/27 13:18:36;;;;;;;;;;;4.20;99.90;;;;;;5071744;28;19924;-82
2021/12/27 13:21:03;;;;;;;;;;;5.50;99.90;;;;;;5071109;28;19999;-83
2021/12/27 13:23:30;;;;;;;;;;;3.50;99.90;;;;;;5072826;28;19928;-82
2021/12/27 13:25:57;;;;;;;;;;;5.30;99.90;;;;;;5071361;28;19928;-79
2021/12/27 13:28:25;;;;;;;;;;;3.20;99.90;;;;;;5073511;28;20002;-81
2021/12/27 13:31:10;;;;;;;;;;;3.10;99.90;;;;;;5072339;28;19934;-79
2021/12/27 13:33:36;;;;;;;;;;;3.10;99.90;;;;;;5071960;28;19946;-86
2021/12/27 13:36:02;;;;;;;;;;;3.10;99.90;;;;;;5072841;28;20372;-86
2021/12/27 13:38:32;;;;;;;;;;;3.00;99.90;;;;;;5073517;28;19928;-86
2021/12/27 13:41:00;;;;;;;;;;;3.20;99.90;;;;;;5073645;28;20280;-85
2021/12/27 13:43:26;;;;;;;;;;;2.60;99.90;;;;;;5072059;28;20403;-85
2021/12/27 13:45:52;;;;;;;;;;;3.10;99.90;;;;;;5056188;28;20118;-86
2021/12/27 13:48:31;;;;;;;;;;;3.10;99.90;;;;;;5071197;28;19928;-87
2021/12/27 13:50:57;;;;;;;;;;;2.90;99.90;;;;;;5069148;28;19993;-87
2021/12/27 13:53:22;;;;;;;;;;;3.10;99.90;;;;;;5066933;28;20009;-84
2021/12/27 13:55:48;;;;;;;;;;;5.80;99.90;;;;;;5086250;28;20415;-84
2021/12/27 13:58:22;;;;;;;;;;;2.90;99.90;;;;;;5070668;28;19925;-82
2021/12/27 14:00:50;;;;;;;;;;;3.00;99.90;;;;;;5071099;28;19929;-83
2021/12/27 14:03:30;;;;;;;;;;;4.30;99.90;;;;;;5072963;28;19935;-83
2021/12/27 14:05:56;;;;;;;;;;;2.90;99.90;;;;;;5070603;28;19985;-84
2021/12/27 14:08:23;;;;;;;;;;;4.70;99.90;;;;;;5072724;28;19928;-84
2021/12/27 14:11:26;;;;;;;;;;;4.50;99.90;;;;;;5066254;28;19962;-82
2021/12/27 14:13:53;;;;;;;;;;;2.80;99.90;;;;;;5026306;28;19929;-82
2021/12/27 14:16:18;;;;;;;;;;;2.40;99.90;;;;;;5059971;28;19928;-82
2021/12/27 14:19:04;;;;;;;;;;;2.60;99.90;;;;;;5072352;28;19939;-81
2021/12/27 14:21:31;;;;;;;;;;;2.70;99.90;;;;;;5071720;28;19939;-82
2021/12/27 14:24:07;;;;;;;;;;;2.60;99.90;;;;;;5071540;28;19931;-82
2021/12/27 14:26:33;;;;;;;;;;;2.80;99.90;;;;;;5070687;28;19974;-82
2021/12/27 14:29:18;;;;;;;;;;;2.40;99.90;;;;;;5071851;28;19963;-82
2021/12/27 14:31:50;;;;;;;;;;;2.80;99.90;;;;;;5071823;28;19931;-82
2021/12/27 14:34:34;;;;;;;;;;;2.80;99.90;;;;;;5068873;28;20280;-81